PWSweather.com
Personal Weather Stations
Station Observations
KWAWALLA12
Eastgate Walla Walla, Walla Walla, WA 99362

Eastgate Walla WallaWalla Walla, WA 99362

Lat: 46.075, Lon: -118.318

Elevation: 1020

Station Type: Oregon Scientific WMR-968

High Low Average
Temperature 52.2°F11.2°C 41.2°F5.1°C 47.0°F8.3°C
Dew Point 29.1°F-1.6°C 15.2°F-9.3°C 21.8°F-5.7°C
Winds Calm Calm Calm Calm Calm SCalm S
Wind Gusts -- -- --
Humidity 59% 27% 38%
Pressure 29.26 in990.9 mb 29.00 in982.1 mb -
Precipitation 0.00 in0.0 mm - -
Hour Temp Dew Point Humidity Winds Wind Gusts Pressure Precip Precip Rate Daily Precip Total
12:00 AM 42.1°F5.6°C 27.1°F-2.7°C 55% Calm Calm -- 29.18 in988.1 mb 0.00 in0.0 mm 0.00 in/hr0.0 mm/hr 0.00 in0.0 mm
12:10 AM 41.9°F5.5°C 26.9°F-2.8°C 55% Calm Calm -- 29.18 in988.1 mb 0.00 in0.0 mm 0.00 in/hr0.0 mm/hr 0.00 in0.0 mm
12:20 AM 41.9°F5.5°C 26.9°F-2.8°C 55% Calm Calm -- 29.15 in987.1 mb 0.00 in0.0 mm 0.00 in/hr0.0 mm/hr 0.00 in0.0 mm
12:30 AM 41.7°F5.4°C 26.8°F-2.9°C 55% Calm Calm -- 29.15 in987.1 mb 0.00 in0.0 mm 0.00 in/hr0.0 mm/hr 0.00 in0.0 mm
01:01 AM 41.2°F5.1°C 27.1°F-2.7°C 57% Calm Calm -- 29.15 in987.1 mb 0.00 in0.0 mm 0.00 in/hr0.0 mm/hr 0.00 in0.0 mm
01:10 AM 41.5°F5.3°C 27.9°F-2.3°C 58% Calm Calm -- 29.15 in987.1 mb 0.00 in0.0 mm 0.00 in/hr0.0 mm/hr 0.00 in0.0 mm
01:20 AM 41.5°F5.3°C 27.9°F-2.3°C 58% Calm Calm -- 29.12 in986.1 mb 0.00 in0.0 mm 0.00 in/hr0.0 mm/hr 0.00 in0.0 mm
01:30 AM 41.5°F5.3°C 28.3°F-2.1°C 59% Calm Calm -- 29.12 in986.1 mb 0.00 in0.0 mm 0.00 in/hr0.0 mm/hr 0.00 in0.0 mm
01:40 AM 41.7°F5.4°C 28.5°F-1.9°C 59% Calm Calm -- 29.12 in986.1 mb 0.00 in0.0 mm 0.00 in/hr0.0 mm/hr 0.00 in0.0 mm
01:49 AM 41.9°F5.5°C 28.6°F-1.9°C 59% Calm Calm -- 29.12 in986.1 mb 0.00 in0.0 mm 0.00 in/hr0.0 mm/hr 0.00 in0.0 mm
02:00 AM 42.4°F5.8°C 29.1°F-1.6°C 59% Calm Calm -- 29.09 in985.1 mb 0.00 in0.0 mm 0.00 in/hr0.0 mm/hr 0.00 in0.0 mm
02:10 AM 43.0°F6.1°C 28.8°F-1.8°C 57% Calm Calm -- 29.09 in985.1 mb 0.00 in0.0 mm 0.00 in/hr0.0 mm/hr 0.00 in0.0 mm
02:20 AM 43.5°F6.4°C 28.9°F-1.7°C 56% Calm Calm -- 29.09 in985.1 mb 0.00 in0.0 mm 0.00 in/hr0.0 mm/hr 0.00 in0.0 mm
02:30 AM 43.7°F6.5°C 28.2°F-2.1°C 54% Calm Calm -- 29.09 in985.1 mb 0.00 in0.0 mm 0.00 in/hr0.0 mm/hr 0.00 in0.0 mm
02:50 AM 43.7°F6.5°C 27.2°F-2.7°C 52% Calm Calm -- 29.09 in985.1 mb 0.00 in0.0 mm 0.00 in/hr0.0 mm/hr 0.00 in0.0 mm
03:00 AM 44.2°F6.8°C 27.3°F-2.6°C 51% Calm Calm -- 29.09 in985.1 mb 0.00 in0.0 mm 0.00 in/hr0.0 mm/hr 0.00 in0.0 mm
03:10 AM 45.7°F7.6°C 27.6°F-2.4°C 49% Calm Calm -- 29.09 in985.1 mb 0.00 in0.0 mm 0.00 in/hr0.0 mm/hr 0.00 in0.0 mm
03:20 AM 47.1°F8.4°C 27.4°F-2.6°C 46% Calm Calm -- 29.09 in985.1 mb 0.00 in0.0 mm 0.00 in/hr0.0 mm/hr 0.00 in0.0 mm
03:30 AM 47.8°F8.8°C 25.9°F-3.4°C 42% Calm Calm -- 29.06 in984.1 mb 0.00 in0.0 mm 0.00 in/hr0.0 mm/hr 0.00 in0.0 mm
03:50 AM 48.6°F9.2°C 28.7°F-1.8°C 46% Calm Calm -- 29.06 in984.1 mb 0.00 in0.0 mm 0.00 in/hr0.0 mm/hr 0.00 in0.0 mm
04:00 AM 48.6°F9.2°C 28.7°F-1.8°C 46% Calm Calm -- 29.06 in984.1 mb 0.00 in0.0 mm 0.00 in/hr0.0 mm/hr 0.00 in0.0 mm
04:30 AM 48.4°F9.1°C 29.1°F-1.6°C 47% Calm Calm -- 29.03 in983.1 mb 0.00 in0.0 mm 0.00 in/hr0.0 mm/hr 0.00 in0.0 mm
04:50 AM 49.5°F9.7°C 28.5°F-1.9°C 44% Calm Calm -- 29.03 in983.1 mb 0.00 in0.0 mm 0.00 in/hr0.0 mm/hr 0.00 in0.0 mm
05:01 AM 49.8°F9.9°C 28.2°F-2.1°C 43% Calm Calm -- 29.00 in982.1 mb 0.00 in0.0 mm 0.00 in/hr0.0 mm/hr 0.00 in0.0 mm
05:10 AM 50.2°F10.1°C 27.4°F-2.6°C 41% Calm Calm -- 29.00 in982.1 mb 0.00 in0.0 mm 0.00 in/hr0.0 mm/hr 0.00 in0.0 mm
05:20 AM 50.7°F10.4°C 27.3°F-2.6°C 40% Calm Calm -- 29.00 in982.1 mb 0.00 in0.0 mm 0.00 in/hr0.0 mm/hr 0.00 in0.0 mm
05:29 AM 50.9°F10.5°C 27.5°F-2.5°C 40% Calm Calm -- 29.00 in982.1 mb 0.00 in0.0 mm 0.00 in/hr0.0 mm/hr 0.00 in0.0 mm
07:09 AM 51.3°F10.7°C 27.2°F-2.7°C 39% Calm Calm -- 29.00 in982.1 mb 0.00 in0.0 mm 0.00 in/hr0.0 mm/hr 0.00 in0.0 mm
07:19 AM 51.4°F10.8°C 27.3°F-2.6°C 39% Calm Calm -- 29.00 in982.1 mb 0.00 in0.0 mm 0.00 in/hr0.0 mm/hr 0.00 in0.0 mm
07:40 AM 51.6°F10.9°C 26.9°F-2.8°C 38% Calm Calm -- 29.00 in982.1 mb 0.00 in0.0 mm 0.00 in/hr0.0 mm/hr 0.00 in0.0 mm
07:49 AM 52.2°F11.2°C 26.7°F-2.9°C 37% Calm Calm -- 29.00 in982.1 mb 0.00 in0.0 mm 0.00 in/hr0.0 mm/hr 0.00 in0.0 mm
08:00 AM 52.2°F11.2°C 26.7°F-2.9°C 37% Calm Calm -- 29.03 in983.1 mb 0.00 in0.0 mm 0.00 in/hr0.0 mm/hr 0.00 in0.0 mm
08:29 AM 51.4°F10.8°C 27.3°F-2.6°C 39% Calm Calm -- 29.03 in983.1 mb 0.00 in0.0 mm 0.00 in/hr0.0 mm/hr 0.00 in0.0 mm
09:01 AM 50.9°F10.5°C 28.1°F-2.2°C 41% Calm Calm -- 29.03 in983.1 mb 0.00 in0.0 mm 0.00 in/hr0.0 mm/hr 0.00 in0.0 mm
09:49 AM 48.6°F9.2°C 23.5°F-4.7°C 37% Calm Calm -- 29.06 in984.1 mb 0.00 in0.0 mm 0.00 in/hr0.0 mm/hr 0.00 in0.0 mm
10:09 AM 47.1°F8.4°C 18.1°F-7.7°C 31% Calm Calm -- 29.09 in985.1 mb 0.00 in0.0 mm 0.00 in/hr0.0 mm/hr 0.00 in0.0 mm
10:20 AM 46.0°F7.8°C 17.9°F-7.8°C 32% Calm Calm -- 29.09 in985.1 mb 0.00 in0.0 mm 0.00 in/hr0.0 mm/hr 0.00 in0.0 mm
10:30 AM 45.5°F7.5°C 19.5°F-6.9°C 35% Calm Calm -- 29.12 in986.1 mb 0.00 in0.0 mm 0.00 in/hr0.0 mm/hr 0.00 in0.0 mm
10:50 AM 45.5°F7.5°C 18.8°F-7.3°C 34% Calm Calm -- 29.15 in987.1 mb 0.00 in0.0 mm 0.00 in/hr0.0 mm/hr 0.00 in0.0 mm
11:01 AM 44.8°F7.1°C 17.5°F-8.1°C 33% Calm Calm -- 29.15 in987.1 mb 0.00 in0.0 mm 0.00 in/hr0.0 mm/hr 0.00 in0.0 mm
11:10 AM 44.6°F7.0°C 18.7°F-7.4°C 35% Calm Calm -- 29.15 in987.1 mb 0.00 in0.0 mm 0.00 in/hr0.0 mm/hr 0.00 in0.0 mm
11:30 AM 45.5°F7.5°C 18.1°F-7.7°C 33% Calm Calm -- 29.18 in988.1 mb 0.00 in0.0 mm 0.00 in/hr0.0 mm/hr 0.00 in0.0 mm
11:40 AM 45.9°F7.7°C 17.0°F-8.3°C 31% Calm Calm -- 29.18 in988.1 mb 0.00 in0.0 mm 0.00 in/hr0.0 mm/hr 0.00 in0.0 mm
11:50 AM 45.9°F7.7°C 16.2°F-8.8°C 30% Calm Calm -- 29.18 in988.1 mb 0.00 in0.0 mm 0.00 in/hr0.0 mm/hr 0.00 in0.0 mm
11:59 AM 45.5°F7.5°C 16.6°F-8.6°C 31% Calm Calm -- 29.21 in989.2 mb 0.00 in0.0 mm 0.00 in/hr0.0 mm/hr 0.00 in0.0 mm
12:20 PM 45.7°F7.6°C 16.0°F-8.9°C 30% Calm Calm -- 29.21 in989.2 mb 0.00 in0.0 mm 0.00 in/hr0.0 mm/hr 0.00 in0.0 mm
12:50 PM 46.8°F8.2°C 16.2°F-8.8°C 29% Calm Calm -- 29.21 in989.2 mb 0.00 in0.0 mm 0.00 in/hr0.0 mm/hr 0.00 in0.0 mm
01:01 PM 46.4°F8.0°C 15.9°F-8.9°C 29% Calm Calm -- 29.21 in989.2 mb 0.00 in0.0 mm 0.00 in/hr0.0 mm/hr 0.00 in0.0 mm
01:10 PM 46.6°F8.1°C 15.2°F-9.3°C 28% Calm Calm -- 29.21 in989.2 mb 0.00 in0.0 mm 0.00 in/hr0.0 mm/hr 0.00 in0.0 mm
01:20 PM 46.2°F7.9°C 15.7°F-9.1°C 29% Calm Calm -- 29.23 in989.8 mb 0.00 in0.0 mm 0.00 in/hr0.0 mm/hr 0.00 in0.0 mm
01:29 PM 46.6°F8.1°C 15.2°F-9.3°C 28% Calm Calm -- 29.23 in989.8 mb 0.00 in0.0 mm 0.00 in/hr0.0 mm/hr 0.00 in0.0 mm
01:40 PM 47.3°F8.5°C 15.9°F-8.9°C 28% Calm Calm -- 29.23 in989.8 mb 0.00 in0.0 mm 0.00 in/hr0.0 mm/hr 0.00 in0.0 mm
01:50 PM 48.2°F9.0°C 15.8°F-9.0°C 27% Calm Calm -- 29.21 in989.2 mb 0.00 in0.0 mm 0.00 in/hr0.0 mm/hr 0.00 in0.0 mm
01:59 PM 48.6°F9.2°C 16.1°F-8.8°C 27% Calm Calm -- 29.21 in989.2 mb 0.00 in0.0 mm 0.00 in/hr0.0 mm/hr 0.00 in0.0 mm
02:10 PM 48.6°F9.2°C 16.1°F-8.8°C 27% Calm Calm -- 29.21 in989.2 mb 0.00 in0.0 mm 0.00 in/hr0.0 mm/hr 0.00 in0.0 mm
02:19 PM 48.6°F9.2°C 16.1°F-8.8°C 27% Calm Calm -- 29.23 in989.8 mb 0.00 in0.0 mm 0.00 in/hr0.0 mm/hr 0.00 in0.0 mm
02:30 PM 49.1°F9.5°C 16.6°F-8.6°C 27% Calm Calm -- 29.23 in989.8 mb 0.00 in0.0 mm 0.00 in/hr0.0 mm/hr 0.00 in0.0 mm
02:40 PM 49.1°F9.5°C 16.6°F-8.6°C 27% Calm Calm -- 29.23 in989.8 mb 0.00 in0.0 mm 0.00 in/hr0.0 mm/hr 0.00 in0.0 mm
02:49 PM 48.9°F9.4°C 16.4°F-8.7°C 27% Calm Calm -- 29.23 in989.8 mb 0.00 in0.0 mm 0.00 in/hr0.0 mm/hr 0.00 in0.0 mm
03:01 PM 49.5°F9.7°C 16.9°F-8.4°C 27% Calm Calm -- 29.23 in989.8 mb 0.00 in0.0 mm 0.00 in/hr0.0 mm/hr 0.00 in0.0 mm
03:10 PM 48.7°F9.3°C 16.3°F-8.7°C 27% Calm Calm -- 29.23 in989.8 mb 0.00 in0.0 mm 0.00 in/hr0.0 mm/hr 0.00 in0.0 mm
03:20 PM 48.7°F9.3°C 16.3°F-8.7°C 27% Calm Calm -- 29.23 in989.8 mb 0.00 in0.0 mm 0.00 in/hr0.0 mm/hr 0.00 in0.0 mm
03:30 PM 48.6°F9.2°C 16.1°F-8.8°C 27% Calm Calm -- 29.26 in990.9 mb 0.00 in0.0 mm 0.00 in/hr0.0 mm/hr 0.00 in0.0 mm
03:50 PM 48.4°F9.1°C 16.0°F-8.9°C 27% Calm Calm -- 29.26 in990.9 mb 0.00 in0.0 mm 0.00 in/hr0.0 mm/hr 0.00 in0.0 mm
04:00 PM 48.4°F9.1°C 16.0°F-8.9°C 27% Calm Calm -- 29.26 in990.9 mb 0.00 in0.0 mm 0.00 in/hr0.0 mm/hr 0.00 in0.0 mm
04:10 PM 47.5°F8.6°C 16.0°F-8.9°C 28% Calm Calm -- 29.26 in990.9 mb 0.00 in0.0 mm 0.00 in/hr0.0 mm/hr 0.00 in0.0 mm
04:20 PM 46.8°F8.2°C 15.4°F-9.2°C 28% Calm Calm -- 29.26 in990.9 mb 0.00 in0.0 mm 0.00 in/hr0.0 mm/hr 0.00 in0.0 mm
04:29 PM 45.9°F7.7°C 15.4°F-9.2°C 29% Calm Calm -- 29.26 in990.9 mb 0.00 in0.0 mm 0.00 in/hr0.0 mm/hr 0.00 in0.0 mm
04:39 PM 45.3°F7.4°C 15.7°F-9.1°C 30% Calm Calm -- 29.26 in990.9 mb 0.00 in0.0 mm 0.00 in/hr0.0 mm/hr 0.00 in0.0 mm
04:50 PM 45.0°F7.2°C 16.2°F-8.8°C 31% Calm Calm -- 29.26 in990.9 mb 0.00 in0.0 mm 0.00 in/hr0.0 mm/hr 0.00 in0.0 mm
05:01 PM 44.6°F7.0°C 17.3°F-8.2°C 33% Calm Calm -- 29.29 in991.9 mb 0.00 in0.0 mm 0.00 in/hr0.0 mm/hr 0.00 in0.0 mm
05:10 PM 44.2°F6.8°C 17.7°F-7.9°C 34% Calm Calm -- 29.29 in991.9 mb 0.00 in0.0 mm 0.00 in/hr0.0 mm/hr 0.00 in0.0 mm
05:20 PM 43.9°F6.6°C 18.0°F-7.8°C 35% Calm Calm -- 29.29 in991.9 mb 0.00 in0.0 mm 0.00 in/hr0.0 mm/hr 0.00 in0.0 mm
05:30 PM 43.3°F6.3°C 18.2°F-7.7°C 36% Calm Calm -- 29.29 in991.9 mb 0.00 in0.0 mm 0.00 in/hr0.0 mm/hr 0.00 in0.0 mm
05:40 PM 42.8°F6.0°C 19.0°F-7.2°C 38% Calm Calm -- 29.29 in991.9 mb 0.00 in0.0 mm 0.00 in/hr0.0 mm/hr 0.00 in0.0 mm
05:50 PM 42.3°F5.7°C 18.5°F-7.5°C 38% Calm Calm -- 29.29 in991.9 mb 0.00 in0.0 mm 0.00 in/hr0.0 mm/hr 0.00 in0.0 mm
05:59 PM 41.7°F5.4°C 18.6°F-7.4°C 39% Calm Calm -- 29.32 in992.9 mb 0.00 in0.0 mm 0.00 in/hr0.0 mm/hr 0.00 in0.0 mm
06:10 PM 41.4°F5.2°C 18.3°F-7.6°C 39% Calm Calm -- 29.32 in992.9 mb 0.00 in0.0 mm 0.00 in/hr0.0 mm/hr 0.00 in0.0 mm
06:20 PM 41.0°F5.0°C 18.0°F-7.8°C 39% Calm Calm -- 29.32 in992.9 mb 0.00 in0.0 mm 0.00 in/hr0.0 mm/hr 0.00 in0.0 mm
06:30 PM 40.5°F4.7°C 18.1°F-7.7°C 40% Calm Calm -- 29.32 in992.9 mb 0.00 in0.0 mm 0.00 in/hr0.0 mm/hr 0.00 in0.0 mm
06:40 PM 40.1°F4.5°C 18.3°F-7.6°C 41% Calm Calm -- 29.32 in992.9 mb 0.00 in0.0 mm 0.00 in/hr0.0 mm/hr 0.00 in0.0 mm
06:50 PM 39.7°F4.3°C 18.0°F-7.8°C 41% Calm Calm -- 29.35 in993.9 mb 0.00 in0.0 mm 0.00 in/hr0.0 mm/hr 0.00 in0.0 mm
07:01 PM 39.4°F4.1°C 17.7°F-7.9°C 41% Calm Calm -- 29.35 in993.9 mb 0.00 in0.0 mm 0.00 in/hr0.0 mm/hr 0.00 in0.0 mm
07:10 PM 39.4°F4.1°C 17.7°F-7.9°C 41% Calm Calm -- 29.35 in993.9 mb 0.00 in0.0 mm 0.00 in/hr0.0 mm/hr 0.00 in0.0 mm
07:20 PM 39.0°F3.9°C 17.3°F-8.2°C 41% Calm Calm -- 29.35 in993.9 mb 0.00 in0.0 mm 0.00 in/hr0.0 mm/hr 0.00 in0.0 mm
07:30 PM 38.7°F3.7°C 17.0°F-8.3°C 41% Calm Calm -- 29.38 in994.9 mb 0.00 in0.0 mm 0.00 in/hr0.0 mm/hr 0.00 in0.0 mm
07:40 PM 38.1°F3.4°C 17.1°F-8.3°C 42% Calm Calm -- 29.38 in994.9 mb 0.00 in0.0 mm 0.00 in/hr0.0 mm/hr 0.00 in0.0 mm
07:50 PM 37.8°F3.2°C 16.8°F-8.4°C 42% Calm Calm -- 29.38 in994.9 mb 0.00 in0.0 mm 0.00 in/hr0.0 mm/hr 0.00 in0.0 mm
07:59 PM 37.2°F2.9°C 16.8°F-8.4°C 43% Calm Calm -- 29.38 in994.9 mb 0.00 in0.0 mm 0.00 in/hr0.0 mm/hr 0.00 in0.0 mm
08:10 PM 36.7°F2.6°C 16.3°F-8.7°C 43% Calm Calm -- 29.38 in994.9 mb 0.00 in0.0 mm 0.00 in/hr0.0 mm/hr 0.00 in0.0 mm
08:19 PM 36.5°F2.5°C 16.7°F-8.5°C 44% Calm Calm -- 29.38 in994.9 mb 0.00 in0.0 mm 0.00 in/hr0.0 mm/hr 0.00 in0.0 mm
08:29 PM 36.3°F2.4°C 16.5°F-8.6°C 44% Calm Calm -- 29.41 in995.9 mb 0.00 in0.0 mm 0.00 in/hr0.0 mm/hr 0.00 in0.0 mm
08:40 PM 36.1°F2.3°C 16.4°F-8.7°C 44% Calm Calm -- 29.41 in995.9 mb 0.00 in0.0 mm 0.00 in/hr0.0 mm/hr 0.00 in0.0 mm
08:50 PM 36.0°F2.2°C 16.7°F-8.5°C 45% Calm Calm -- 29.41 in995.9 mb 0.00 in0.0 mm 0.00 in/hr0.0 mm/hr 0.00 in0.0 mm
09:01 PM 35.8°F2.1°C 16.0°F-8.9°C 44% Calm Calm -- 29.41 in995.9 mb 0.00 in0.0 mm 0.00 in/hr0.0 mm/hr 0.00 in0.0 mm
09:10 PM 35.6°F2.0°C 16.4°F-8.7°C 45% Calm Calm -- 29.41 in995.9 mb 0.00 in0.0 mm 0.00 in/hr0.0 mm/hr 0.00 in0.0 mm
09:20 PM 35.1°F1.7°C 16.4°F-8.7°C 46% Calm Calm -- 29.41 in995.9 mb 0.00 in0.0 mm 0.00 in/hr0.0 mm/hr 0.00 in0.0 mm
09:30 PM 34.3°F1.3°C 15.7°F-9.1°C 46% Calm Calm -- 29.44 in997.0 mb 0.00 in0.0 mm 0.00 in/hr0.0 mm/hr 0.00 in0.0 mm
09:40 PM 34.0°F1.1°C 15.9°F-8.9°C 47% Calm Calm -- 29.44 in997.0 mb 0.00 in0.0 mm 0.00 in/hr0.0 mm/hr 0.00 in0.0 mm
09:50 PM 34.2°F1.2°C 17.0°F-8.3°C 49% Calm Calm -- 29.44 in997.0 mb 0.00 in0.0 mm 0.00 in/hr0.0 mm/hr 0.00 in0.0 mm
10:00 PM 34.3°F1.3°C 17.6°F-8.0°C 50% Calm Calm -- 29.44 in997.0 mb 0.00 in0.0 mm 0.00 in/hr0.0 mm/hr 0.00 in0.0 mm
10:09 PM 34.0°F1.1°C 17.3°F-8.2°C 50% Calm Calm -- 29.44 in997.0 mb 0.00 in0.0 mm 0.00 in/hr0.0 mm/hr 0.00 in0.0 mm
10:19 PM 33.8°F1.0°C 17.1°F-8.3°C 50% Calm Calm -- 29.44 in997.0 mb 0.00 in0.0 mm 0.00 in/hr0.0 mm/hr 0.00 in0.0 mm
10:30 PM 34.2°F1.2°C 17.9°F-7.8°C 51% Calm Calm -- 29.44 in997.0 mb 0.00 in0.0 mm 0.00 in/hr0.0 mm/hr 0.00 in0.0 mm
10:40 PM 34.3°F1.3°C 18.1°F-7.7°C 51% Calm Calm -- 29.44 in997.0 mb 0.00 in0.0 mm 0.00 in/hr0.0 mm/hr 0.00 in0.0 mm
10:49 PM 34.3°F1.3°C 18.1°F-7.7°C 51% Calm Calm -- 29.47 in998.0 mb 0.00 in0.0 mm 0.00 in/hr0.0 mm/hr 0.00 in0.0 mm
11:00 PM 34.2°F1.2°C 17.9°F-7.8°C 51% Calm Calm -- 29.47 in998.0 mb 0.00 in0.0 mm 0.00 in/hr0.0 mm/hr 0.00 in0.0 mm
11:10 PM 34.0°F1.1°C 17.8°F-7.9°C 51% Calm Calm -- 29.47 in998.0 mb 0.00 in0.0 mm 0.00 in/hr0.0 mm/hr 0.00 in0.0 mm
11:20 PM 33.8°F1.0°C 18.1°F-7.7°C 52% Calm Calm -- 29.47 in998.0 mb 0.00 in0.0 mm 0.00 in/hr0.0 mm/hr 0.00 in0.0 mm
11:29 PM 33.8°F1.0°C 18.1°F-7.7°C 52% Calm Calm -- 29.50 in999.0 mb 0.00 in0.0 mm 0.00 in/hr0.0 mm/hr 0.00 in0.0 mm
11:39 PM 33.8°F1.0°C 18.1°F-7.7°C 52% Calm Calm -- 29.50 in999.0 mb 0.00 in0.0 mm 0.00 in/hr0.0 mm/hr 0.00 in0.0 mm
11:50 PM 33.6°F0.9°C 17.9°F-7.8°C 52% Calm Calm -- 29.50 in999.0 mb 0.00 in0.0 mm 0.00 in/hr0.0 mm/hr 0.00 in0.0 mm